Terminal Aerodrome Forecast
Issued by NWS Omaha/Valley, NE

Home | Current Version | Previous Version | Text Only | Print | Product List | Glossary On
Versions: 1 2 3 4 5 6 7 8 9 10 11 12 13 14 15 16 17 18 19 20 21 22 23 24 25 26 27 28 29 30 31 32 33 34 35 36 37 38 39 40 41 42 43 44 45 46 47 48 49 50
000
FTUS43 KOAX 252324
TAFOMA
TAF
KOMA 252324Z 2600/2624 19014KT P6SM SCT040 BKN070
      TEMPO 2600/2604 3SM TSRA BKN030CB
     FM260400 16007KT P6SM OVC060
     FM260700 17008KT P6SM OVC060
      TEMPO 2607/2610 4SM -TSRA BKN030CB
     FM261000 16005KT P6SM OVC040
     FM261800 30009KT P6SM BKN040=

USA.gov is the U.S. government's official web portal to all federal, state and local government web resources and services.